sensor_id;sensor_type;location;lat;lon;timestamp;temperature;humidity
37380;DHT22;23252;-33.992;18.480;2022-10-16T00:01:21;16.60;99.90
37380;DHT22;23252;-33.992;18.480;2022-10-16T00:03:48;16.60;99.90
37380;DHT22;23252;-33.992;18.480;2022-10-16T00:06:17;16.60;99.90
37380;DHT22;23252;-33.992;18.480;2022-10-16T00:08:44;16.50;99.90
37380;DHT22;23252;-33.992;18.480;2022-10-16T00:11:13;16.50;99.90
37380;DHT22;23252;-33.992;18.480;2022-10-16T00:13:42;16.40;99.90
37380;DHT22;23252;-33.992;18.480;2022-10-16T00:16:09;16.30;99.90
37380;DHT22;23252;-33.992;18.480;2022-10-16T00:18:37;16.20;99.90
37380;DHT22;23252;-33.992;18.480;2022-10-16T00:21:07;16.20;99.90
37380;DHT22;23252;-33.992;18.480;2022-10-16T00:23:35;16.20;99.90
37380;DHT22;23252;-33.992;18.480;2022-10-16T00:26:08;16.20;99.90
37380;DHT22;23252;-33.992;18.480;2022-10-16T00:28:35;16.20;99.90
37380;DHT22;23252;-33.992;18.480;2022-10-16T00:31:06;16.20;99.90
37380;DHT22;23252;-33.992;18.480;2022-10-16T00:33:33;16.20;99.90
37380;DHT22;23252;-33.992;18.480;2022-10-16T00:36:02;16.10;99.90
37380;DHT22;23252;-33.992;18.480;2022-10-16T00:38:29;16.20;99.90
37380;DHT22;23252;-33.992;18.480;2022-10-16T00:40:56;16.10;99.90
37380;DHT22;23252;-33.992;18.480;2022-10-16T00:43:44;16.20;99.90
37380;DHT22;23252;-33.992;18.480;2022-10-16T00:51:42;16.20;99.90
37380;DHT22;23252;-33.992;18.480;2022-10-16T00:54:14;16.20;99.90
37380;DHT22;23252;-33.992;18.480;2022-10-16T00:56:42;16.20;99.90
37380;DHT22;23252;-33.992;18.480;2022-10-16T00:59:20;16.20;99.90
37380;DHT22;23252;-33.992;18.480;2022-10-16T01:01:47;16.20;99.90
37380;DHT22;23252;-33.992;18.480;2022-10-16T01:04:13;16.20;99.90
37380;DHT22;23252;-33.992;18.480;2022-10-16T01:17:13;16.10;99.90
37380;DHT22;23252;-33.992;18.480;2022-10-16T01:22:26;16.20;99.90
37380;DHT22;23252;-33.992;18.480;2022-10-16T01:24:55;16.20;99.90
37380;DHT22;23252;-33.992;18.480;2022-10-16T01:27:28;16.20;99.90
37380;DHT22;23252;-33.992;18.480;2022-10-16T01:32:51;16.20;99.90
37380;DHT22;23252;-33.992;18.480;2022-10-16T01:35:41;16.20;99.90
37380;DHT22;23252;-33.992;18.480;2022-10-16T01:38:36;16.30;99.90
37380;DHT22;23252;-33.992;18.480;2022-10-16T01:41:26;16.30;99.90
37380;DHT22;23252;-33.992;18.480;2022-10-16T01:46:46;16.50;99.90
37380;DHT22;23252;-33.992;18.480;2022-10-16T01:49:15;16.50;99.90
37380;DHT22;23252;-33.992;18.480;2022-10-16T01:51:44;16.50;99.90
37380;DHT22;23252;-33.992;18.480;2022-10-16T01:54:14;16.50;99.90
37380;DHT22;23252;-33.992;18.480;2022-10-16T01:56:43;16.60;99.90
37380;DHT22;23252;-33.992;18.480;2022-10-16T01:59:18;16.60;99.90
37380;DHT22;23252;-33.992;18.480;2022-10-16T02:01:50;16.60;99.90
37380;DHT22;23252;-33.992;18.480;2022-10-16T02:04:49;16.60;99.90
37380;DHT22;23252;-33.992;18.480;2022-10-16T02:07:15;16.60;99.90
37380;DHT22;23252;-33.992;18.480;2022-10-16T02:09:41;16.70;99.90
37380;DHT22;23252;-33.992;18.480;2022-10-16T02:12:23;16.70;99.90
37380;DHT22;23252;-33.992;18.480;2022-10-16T02:14:50;16.80;99.90
37380;DHT22;23252;-33.992;18.480;2022-10-16T02:17:20;16.80;99.90
37380;DHT22;23252;-33.992;18.480;2022-10-16T02:19:48;16.80;99.90
37380;DHT22;23252;-33.992;18.480;2022-10-16T02:25:25;16.80;99.90
37380;DHT22;23252;-33.992;18.480;2022-10-16T02:28:03;16.70;99.90
37380;DHT22;23252;-33.992;18.480;2022-10-16T02:30:43;16.80;99.90
37380;DHT22;23252;-33.992;18.480;2022-10-16T02:33:12;16.70;99.90
37380;DHT22;23252;-33.992;18.480;2022-10-16T02:35:41;16.80;99.90
37380;DHT22;23252;-33.992;18.480;2022-10-16T02:38:08;16.80;99.90
37380;DHT22;23252;-33.992;18.480;2022-10-16T02:40:36;16.80;99.90
37380;DHT22;23252;-33.992;18.480;2022-10-16T02:43:04;16.80;99.90
37380;DHT22;23252;-33.992;18.480;2022-10-16T02:45:31;16.90;99.90
37380;DHT22;23252;-33.992;18.480;2022-10-16T02:47:57;16.80;99.90
37380;DHT22;23252;-33.992;18.480;2022-10-16T02:50:24;16.80;99.90
37380;DHT22;23252;-33.992;18.480;2022-10-16T02:52:51;16.80;99.90
37380;DHT22;23252;-33.992;18.480;2022-10-16T02:55:17;16.80;99.90
37380;DHT22;23252;-33.992;18.480;2022-10-16T02:57:44;16.80;99.90
37380;DHT22;23252;-33.992;18.480;2022-10-16T03:00:13;16.70;99.90
37380;DHT22;23252;-33.992;18.480;2022-10-16T03:02:40;16.70;99.90
37380;DHT22;23252;-33.992;18.480;2022-10-16T03:05:07;16.70;99.90
37380;DHT22;23252;-33.992;18.480;2022-10-16T03:07:34;16.70;99.90
37380;DHT22;23252;-33.992;18.480;2022-10-16T03:10:00;16.70;99.90
37380;DHT22;23252;-33.992;18.480;2022-10-16T03:12:28;16.80;99.90
37380;DHT22;23252;-33.992;18.480;2022-10-16T03:14:57;16.80;99.90
37380;DHT22;23252;-33.992;18.480;2022-10-16T03:17:24;16.70;99.90
37380;DHT22;23252;-33.992;18.480;2022-10-16T03:19:51;16.70;99.90
37380;DHT22;23252;-33.992;18.480;2022-10-16T03:22:17;16.70;99.90
37380;DHT22;23252;-33.992;18.480;2022-10-16T03:24:44;16.80;99.90
37380;DHT22;23252;-33.992;18.480;2022-10-16T03:27:10;16.80;99.90
37380;DHT22;23252;-33.992;18.480;2022-10-16T03:29:37;16.80;99.90
37380;DHT22;23252;-33.992;18.480;2022-10-16T03:32:03;16.80;99.90
37380;DHT22;23252;-33.992;18.480;2022-10-16T03:34:30;16.80;99.90
37380;DHT22;23252;-33.992;18.480;2022-10-16T03:36:56;16.80;99.90
37380;DHT22;23252;-33.992;18.480;2022-10-16T03:39:23;16.80;99.90
37380;DHT22;23252;-33.992;18.480;2022-10-16T03:41:50;16.90;99.90
37380;DHT22;23252;-33.992;18.480;2022-10-16T03:44:16;16.90;99.90
37380;DHT22;23252;-33.992;18.480;2022-10-16T03:46:43;16.90;99.90
37380;DHT22;23252;-33.992;18.480;2022-10-16T03:49:09;16.80;99.90
37380;DHT22;23252;-33.992;18.480;2022-10-16T03:51:36;16.90;99.90
37380;DHT22;23252;-33.992;18.480;2022-10-16T03:54:02;16.80;99.90
37380;DHT22;23252;-33.992;18.480;2022-10-16T03:56:29;16.90;99.90
37380;DHT22;23252;-33.992;18.480;2022-10-16T03:58:55;16.90;99.90
37380;DHT22;23252;-33.992;18.480;2022-10-16T04:01:22;16.90;99.90
37380;DHT22;23252;-33.992;18.480;2022-10-16T04:03:48;16.90;99.90
37380;DHT22;23252;-33.992;18.480;2022-10-16T04:06:15;16.90;99.90
37380;DHT22;23252;-33.992;18.480;2022-10-16T04:08:44;16.90;99.90
37380;DHT22;23252;-33.992;18.480;2022-10-16T04:11:11;16.90;99.90
37380;DHT22;23252;-33.992;18.480;2022-10-16T04:13:38;16.90;99.90
37380;DHT22;23252;-33.992;18.480;2022-10-16T04:16:04;16.90;99.90
37380;DHT22;23252;-33.992;18.480;2022-10-16T04:18:31;16.90;99.90
37380;DHT22;23252;-33.992;18.480;2022-10-16T04:21:05;16.90;99.90
37380;DHT22;23252;-33.992;18.480;2022-10-16T04:23:32;16.90;99.90
37380;DHT22;23252;-33.992;18.480;2022-10-16T04:25:59;16.90;99.90
37380;DHT22;23252;-33.992;18.480;2022-10-16T04:28:27;16.80;99.90
37380;DHT22;23252;-33.992;18.480;2022-10-16T04:30:53;16.90;99.90
37380;DHT22;23252;-33.992;18.480;2022-10-16T04:33:20;16.90;99.90
37380;DHT22;23252;-33.992;18.480;2022-10-16T04:35:46;16.90;99.90
37380;DHT22;23252;-33.992;18.480;2022-10-16T04:38:12;16.90;99.90
37380;DHT22;23252;-33.992;18.480;2022-10-16T04:40:39;16.90;99.90
37380;DHT22;23252;-33.992;18.480;2022-10-16T04:43:07;16.90;99.90
37380;DHT22;23252;-33.992;18.480;2022-10-16T04:45:34;16.90;99.90
37380;DHT22;23252;-33.992;18.480;2022-10-16T04:48:00;16.90;99.90
37380;DHT22;23252;-33.992;18.480;2022-10-16T04:50:27;16.90;99.90
37380;DHT22;23252;-33.992;18.480;2022-10-16T04:52:53;16.90;99.90
37380;DHT22;23252;-33.992;18.480;2022-10-16T04:55:20;16.90;99.90
37380;DHT22;23252;-33.992;18.480;2022-10-16T04:57:47;16.90;99.90
37380;DHT22;23252;-33.992;18.480;2022-10-16T05:00:13;16.90;99.90
37380;DHT22;23252;-33.992;18.480;2022-10-16T05:02:40;16.90;99.90
37380;DHT22;23252;-33.992;18.480;2022-10-16T05:05:07;17.00;99.90
37380;DHT22;23252;-33.992;18.480;2022-10-16T05:07:33;17.10;99.90
37380;DHT22;23252;-33.992;18.480;2022-10-16T05:10:00;17.10;99.90
37380;DHT22;23252;-33.992;18.480;2022-10-16T05:12:26;17.10;99.90
37380;DHT22;23252;-33.992;18.480;2022-10-16T05:14:53;17.20;99.90
37380;DHT22;23252;-33.992;18.480;2022-10-16T05:17:27;17.30;99.90
37380;DHT22;23252;-33.992;18.480;2022-10-16T05:19:53;17.40;99.90
37380;DHT22;23252;-33.992;18.480;2022-10-16T05:22:20;17.40;99.90
37380;DHT22;23252;-33.992;18.480;2022-10-16T05:24:46;17.50;99.90
37380;DHT22;23252;-33.992;18.480;2022-10-16T05:27:13;17.60;99.90
37380;DHT22;23252;-33.992;18.480;2022-10-16T05:29:48;17.70;99.90
37380;DHT22;23252;-33.992;18.480;2022-10-16T05:32:16;17.80;99.90
37380;DHT22;23252;-33.992;18.480;2022-10-16T05:34:43;17.80;99.90
37380;DHT22;23252;-33.992;18.480;2022-10-16T05:37:11;17.80;99.90
37380;DHT22;23252;-33.992;18.480;2022-10-16T05:39:38;17.90;99.90
37380;DHT22;23252;-33.992;18.480;2022-10-16T05:42:05;17.90;99.90
37380;DHT22;23252;-33.992;18.480;2022-10-16T05:44:31;18.00;99.90
37380;DHT22;23252;-33.992;18.480;2022-10-16T05:46:58;18.10;99.90
37380;DHT22;23252;-33.992;18.480;2022-10-16T05:49:24;18.10;99.90
37380;DHT22;23252;-33.992;18.480;2022-10-16T05:51:51;18.20;99.90
37380;DHT22;23252;-33.992;18.480;2022-10-16T05:54:17;18.20;99.90
37380;DHT22;23252;-33.992;18.480;2022-10-16T05:56:44;18.20;99.90
37380;DHT22;23252;-33.992;18.480;2022-10-16T05:59:10;18.20;99.90
37380;DHT22;23252;-33.992;18.480;2022-10-16T06:01:37;18.20;99.90
37380;DHT22;23252;-33.992;18.480;2022-10-16T06:04:03;18.20;99.90
37380;DHT22;23252;-33.992;18.480;2022-10-16T06:06:30;18.30;99.90
37380;DHT22;23252;-33.992;18.480;2022-10-16T06:08:57;18.30;99.90
37380;DHT22;23252;-33.992;18.480;2022-10-16T06:11:28;18.40;99.90
37380;DHT22;23252;-33.992;18.480;2022-10-16T06:13:57;18.50;99.90
37380;DHT22;23252;-33.992;18.480;2022-10-16T06:16:25;18.50;99.90
37380;DHT22;23252;-33.992;18.480;2022-10-16T06:18:53;18.60;99.90
37380;DHT22;23252;-33.992;18.480;2022-10-16T06:21:22;18.70;99.90
37380;DHT22;23252;-33.992;18.480;2022-10-16T06:23:50;18.80;99.90
37380;DHT22;23252;-33.992;18.480;2022-10-16T06:26:19;18.90;99.90
37380;DHT22;23252;-33.992;18.480;2022-10-16T06:28:47;19.00;99.90
37380;DHT22;23252;-33.992;18.480;2022-10-16T06:31:14;19.10;99.90
37380;DHT22;23252;-33.992;18.480;2022-10-16T06:33:41;19.20;99.90
37380;DHT22;23252;-33.992;18.480;2022-10-16T06:36:13;19.20;99.90
37380;DHT22;23252;-33.992;18.480;2022-10-16T06:38:40;19.30;99.90
37380;DHT22;23252;-33.992;18.480;2022-10-16T06:41:09;19.40;99.90
37380;DHT22;23252;-33.992;18.480;2022-10-16T06:43:37;19.40;99.90
37380;DHT22;23252;-33.992;18.480;2022-10-16T06:46:05;19.40;99.90
37380;DHT22;23252;-33.992;18.480;2022-10-16T06:48:35;19.60;99.90
37380;DHT22;23252;-33.992;18.480;2022-10-16T06:51:13;19.70;99.90
37380;DHT22;23252;-33.992;18.480;2022-10-16T06:53:45;19.90;99.90
37380;DHT22;23252;-33.992;18.480;2022-10-16T06:56:16;20.10;99.90
37380;DHT22;23252;-33.992;18.480;2022-10-16T06:58:44;20.20;99.90
37380;DHT22;23252;-33.992;18.480;2022-10-16T07:01:10;20.30;99.90
37380;DHT22;23252;-33.992;18.480;2022-10-16T07:03:41;20.50;99.90
37380;DHT22;23252;-33.992;18.480;2022-10-16T07:06:09;20.70;99.90
37380;DHT22;23252;-33.992;18.480;2022-10-16T07:08:38;20.90;99.90
37380;DHT22;23252;-33.992;18.480;2022-10-16T07:11:07;20.90;99.90
37380;DHT22;23252;-33.992;18.480;2022-10-16T07:13:35;21.00;99.90
37380;DHT22;23252;-33.992;18.480;2022-10-16T07:16:11;21.10;99.90
37380;DHT22;23252;-33.992;18.480;2022-10-16T07:18:38;21.10;99.90
37380;DHT22;23252;-33.992;18.480;2022-10-16T07:21:06;21.10;99.90
37380;DHT22;23252;-33.992;18.480;2022-10-16T07:23:33;21.10;99.90
37380;DHT22;23252;-33.992;18.480;2022-10-16T07:25:59;21.00;99.90
37380;DHT22;23252;-33.992;18.480;2022-10-16T07:28:27;21.00;99.90
37380;DHT22;23252;-33.992;18.480;2022-10-16T07:30:53;21.10;99.90
37380;DHT22;23252;-33.992;18.480;2022-10-16T07:33:20;21.10;99.90
37380;DHT22;23252;-33.992;18.480;2022-10-16T07:35:52;21.20;99.90
37380;DHT22;23252;-33.992;18.480;2022-10-16T07:38:19;21.30;99.90
37380;DHT22;23252;-33.992;18.480;2022-10-16T07:40:46;21.40;99.90
37380;DHT22;23252;-33.992;18.480;2022-10-16T07:43:13;21.50;99.90
37380;DHT22;23252;-33.992;18.480;2022-10-16T07:45:49;21.60;99.90
37380;DHT22;23252;-33.992;18.480;2022-10-16T07:48:16;21.70;99.90
37380;DHT22;23252;-33.992;18.480;2022-10-16T07:50:43;22.00;99.90
37380;DHT22;23252;-33.992;18.480;2022-10-16T07:53:10;22.10;99.90
37380;DHT22;23252;-33.992;18.480;2022-10-16T07:55:37;22.20;99.90
37380;DHT22;23252;-33.992;18.480;2022-10-16T07:58:04;22.30;99.90
37380;DHT22;23252;-33.992;18.480;2022-10-16T08:00:32;22.30;99.90
37380;DHT22;23252;-33.992;18.480;2022-10-16T08:02:58;22.30;99.90
37380;DHT22;23252;-33.992;18.480;2022-10-16T08:05:29;22.30;99.90
37380;DHT22;23252;-33.992;18.480;2022-10-16T08:07:56;22.40;99.90
37380;DHT22;23252;-33.992;18.480;2022-10-16T08:10:25;22.50;99.90
37380;DHT22;23252;-33.992;18.480;2022-10-16T08:12:52;22.70;99.90
37380;DHT22;23252;-33.992;18.480;2022-10-16T08:15:18;22.90;99.90
37380;DHT22;23252;-33.992;18.480;2022-10-16T08:17:54;23.10;99.90
37380;DHT22;23252;-33.992;18.480;2022-10-16T08:20:20;23.20;99.90
37380;DHT22;23252;-33.992;18.480;2022-10-16T08:22:47;23.30;99.90
37380;DHT22;23252;-33.992;18.480;2022-10-16T08:25:13;23.50;99.90
37380;DHT22;23252;-33.992;18.480;2022-10-16T08:27:40;23.50;99.90
37380;DHT22;23252;-33.992;18.480;2022-10-16T08:30:07;23.60;99.90
37380;DHT22;23252;-33.992;18.480;2022-10-16T08:32:33;23.60;99.90
37380;DHT22;23252;-33.992;18.480;2022-10-16T08:35:00;23.70;99.90
37380;DHT22;23252;-33.992;18.480;2022-10-16T08:37:30;23.80;99.90
37380;DHT22;23252;-33.992;18.480;2022-10-16T08:39:57;23.90;99.90
37380;DHT22;23252;-33.992;18.480;2022-10-16T08:45:30;24.00;99.90
37380;DHT22;23252;-33.992;18.480;2022-10-16T08:48:05;24.00;99.90
37380;DHT22;23252;-33.992;18.480;2022-10-16T08:50:38;24.10;99.90
37380;DHT22;23252;-33.992;18.480;2022-10-16T08:53:05;24.10;99.90
37380;DHT22;23252;-33.992;18.480;2022-10-16T08:55:43;24.20;99.90
37380;DHT22;23252;-33.992;18.480;2022-10-16T08:58:10;24.30;99.90
37380;DHT22;23252;-33.992;18.480;2022-10-16T09:00:39;24.40;99.90
37380;DHT22;23252;-33.992;18.480;2022-10-16T09:06:08;24.60;99.90
37380;DHT22;23252;-33.992;18.480;2022-10-16T09:11:40;24.80;99.90
37380;DHT22;23252;-33.992;18.480;2022-10-16T09:19:49;25.00;99.90
37380;DHT22;23252;-33.992;18.480;2022-10-16T09:22:18;25.00;99.90
37380;DHT22;23252;-33.992;18.480;2022-10-16T09:24:47;24.90;99.90
37380;DHT22;23252;-33.992;18.480;2022-10-16T09:27:15;24.70;99.90
37380;DHT22;23252;-33.992;18.480;2022-10-16T09:29:41;24.70;99.90
37380;DHT22;23252;-33.992;18.480;2022-10-16T09:32:17;24.90;99.90
37380;DHT22;23252;-33.992;18.480;2022-10-16T09:34:55;25.10;99.90
37380;DHT22;23252;-33.992;18.480;2022-10-16T09:37:24;25.20;99.90
37380;DHT22;23252;-33.992;18.480;2022-10-16T09:39:53;25.40;99.90
37380;DHT22;23252;-33.992;18.480;2022-10-16T09:42:27;25.40;99.90
37380;DHT22;23252;-33.992;18.480;2022-10-16T09:44:54;25.50;99.90
37380;DHT22;23252;-33.992;18.480;2022-10-16T09:47:23;25.70;99.90
37380;DHT22;23252;-33.992;18.480;2022-10-16T09:49:56;25.80;99.90
37380;DHT22;23252;-33.992;18.480;2022-10-16T09:52:24;25.90;99.90
37380;DHT22;23252;-33.992;18.480;2022-10-16T09:54:51;26.00;99.90
37380;DHT22;23252;-33.992;18.480;2022-10-16T09:57:18;26.10;99.90
37380;DHT22;23252;-33.992;18.480;2022-10-16T09:59:56;26.20;99.90
37380;DHT22;23252;-33.992;18.480;2022-10-16T10:02:33;26.30;99.90
37380;DHT22;23252;-33.992;18.480;2022-10-16T10:05:01;26.30;99.90
37380;DHT22;23252;-33.992;18.480;2022-10-16T10:07:32;26.30;99.90
37380;DHT22;23252;-33.992;18.480;2022-10-16T10:10:03;26.30;99.90
37380;DHT22;23252;-33.992;18.480;2022-10-16T10:12:32;26.30;99.90
37380;DHT22;23252;-33.992;18.480;2022-10-16T10:15:11;26.30;99.90
37380;DHT22;23252;-33.992;18.480;2022-10-16T10:17:57;26.30;99.90
37380;DHT22;23252;-33.992;18.480;2022-10-16T10:20:29;26.30;99.90
37380;DHT22;23252;-33.992;18.480;2022-10-16T10:22:57;26.30;99.90
37380;DHT22;23252;-33.992;18.480;2022-10-16T10:33:48;27.20;99.90
37380;DHT22;23252;-33.992;18.480;2022-10-16T10:36:39;27.20;99.90
37380;DHT22;23252;-33.992;18.480;2022-10-16T10:42:00;27.50;99.90
37380;DHT22;23252;-33.992;18.480;2022-10-16T10:50:12;27.80;99.90
37380;DHT22;23252;-33.992;18.480;2022-10-16T10:52:49;28.00;99.90
37380;DHT22;23252;-33.992;18.480;2022-10-16T11:06:34;28.60;99.90
37380;DHT22;23252;-33.992;18.480;2022-10-16T11:09:41;28.90;99.90
37380;DHT22;23252;-33.992;18.480;2022-10-16T11:14:48;29.10;99.90
37380;DHT22;23252;-33.992;18.480;2022-10-16T11:19:49;29.40;99.90
37380;DHT22;23252;-33.992;18.480;2022-10-16T11:25:13;29.90;99.90
37380;DHT22;23252;-33.992;18.480;2022-10-16T11:41:10;29.00;99.90
37380;DHT22;23252;-33.992;18.480;2022-10-16T11:43:42;28.90;99.90
37380;DHT22;23252;-33.992;18.480;2022-10-16T11:46:17;28.90;99.90
37380;DHT22;23252;-33.992;18.480;2022-10-16T11:49:10;28.80;99.90
37380;DHT22;23252;-33.992;18.480;2022-10-16T11:57:23;28.50;99.90
37380;DHT22;23252;-33.992;18.480;2022-10-16T12:00:05;28.70;99.90
37380;DHT22;23252;-33.992;18.480;2022-10-16T12:10:35;29.00;99.90
37380;DHT22;23252;-33.992;18.480;2022-10-16T12:13:35;28.70;99.90
37380;DHT22;23252;-33.992;18.480;2022-10-16T12:16:08;28.50;99.90
37380;DHT22;23252;-33.992;18.480;2022-10-16T12:18:47;28.60;99.90
37380;DHT22;23252;-33.992;18.480;2022-10-16T12:21:15;29.10;99.90
37380;DHT22;23252;-33.992;18.480;2022-10-16T12:23:56;29.70;99.90
37380;DHT22;23252;-33.992;18.480;2022-10-16T12:28:52;30.00;99.90
37380;DHT22;23252;-33.992;18.480;2022-10-16T12:31:19;29.80;99.90
37380;DHT22;23252;-33.992;18.480;2022-10-16T12:34:01;29.60;99.90
37380;DHT22;23252;-33.992;18.480;2022-10-16T12:36:33;29.40;99.90
37380;DHT22;23252;-33.992;18.480;2022-10-16T12:39:01;29.20;99.90
37380;DHT22;23252;-33.992;18.480;2022-10-16T12:41:35;29.00;99.90
37380;DHT22;23252;-33.992;18.480;2022-10-16T12:44:20;28.80;99.90
37380;DHT22;23252;-33.992;18.480;2022-10-16T12:46:47;28.60;99.90
37380;DHT22;23252;-33.992;18.480;2022-10-16T12:49:31;28.40;99.90
37380;DHT22;23252;-33.992;18.480;2022-10-16T12:51:58;28.20;99.90
37380;DHT22;23252;-33.992;18.480;2022-10-16T13:00:05;28.20;99.90
37380;DHT22;23252;-33.992;18.480;2022-10-16T13:14:08;28.20;99.90
37380;DHT22;23252;-33.992;18.480;2022-10-16T13:16:55;28.20;99.90
37380;DHT22;23252;-33.992;18.480;2022-10-16T13:19:46;28.20;99.90
37380;DHT22;23252;-33.992;18.480;2022-10-16T13:22:48;28.20;99.90
37380;DHT22;23252;-33.992;18.480;2022-10-16T13:28:06;28.60;99.90
37380;DHT22;23252;-33.992;18.480;2022-10-16T13:30:45;28.70;99.90
37380;DHT22;23252;-33.992;18.480;2022-10-16T13:35:56;29.70;99.90
37380;DHT22;23252;-33.992;18.480;2022-10-16T13:38:25;29.90;99.90
37380;DHT22;23252;-33.992;18.480;2022-10-16T13:40:54;31.00;99.90
37380;DHT22;23252;-33.992;18.480;2022-10-16T13:43:37;30.90;99.90
37380;DHT22;23252;-33.992;18.480;2022-10-16T13:46:07;31.00;99.90
37380;DHT22;23252;-33.992;18.480;2022-10-16T13:48:37;31.50;99.90
37380;DHT22;23252;-33.992;18.480;2022-10-16T13:51:11;31.20;99.90
37380;DHT22;23252;-33.992;18.480;2022-10-16T13:53:39;31.10;99.90
37380;DHT22;23252;-33.992;18.480;2022-10-16T13:56:20;31.40;99.90
37380;DHT22;23252;-33.992;18.480;2022-10-16T13:58:58;31.50;99.90
37380;DHT22;23252;-33.992;18.480;2022-10-16T14:01:31;32.20;99.90
37380;DHT22;23252;-33.992;18.480;2022-10-16T14:04:08;33.10;99.90
37380;DHT22;23252;-33.992;18.480;2022-10-16T14:06:36;33.80;99.90
37380;DHT22;23252;-33.992;18.480;2022-10-16T14:09:23;34.30;99.90
37380;DHT22;23252;-33.992;18.480;2022-10-16T14:12:00;34.50;99.90
37380;DHT22;23252;-33.992;18.480;2022-10-16T14:14:27;34.30;99.90
37380;DHT22;23252;-33.992;18.480;2022-10-16T14:16:58;34.00;99.90
37380;DHT22;23252;-33.992;18.480;2022-10-16T14:19:26;33.90;99.90
37380;DHT22;23252;-33.992;18.480;2022-10-16T14:21:53;33.60;99.90
37380;DHT22;23252;-33.992;18.480;2022-10-16T14:24:30;33.30;99.90
37380;DHT22;23252;-33.992;18.480;2022-10-16T14:26:58;32.70;99.90
37380;DHT22;23252;-33.992;18.480;2022-10-16T14:29:27;32.30;99.90
37380;DHT22;23252;-33.992;18.480;2022-10-16T14:32:02;31.90;99.90
37380;DHT22;23252;-33.992;18.480;2022-10-16T14:34:54;31.90;99.90
37380;DHT22;23252;-33.992;18.480;2022-10-16T14:37:28;31.90;99.90
37380;DHT22;23252;-33.992;18.480;2022-10-16T14:39:55;31.90;99.90
37380;DHT22;23252;-33.992;18.480;2022-10-16T14:42:24;31.50;99.90
37380;DHT22;23252;-33.992;18.480;2022-10-16T14:44:53;30.80;99.90
37380;DHT22;23252;-33.992;18.480;2022-10-16T14:47:24;30.10;99.90
37380;DHT22;23252;-33.992;18.480;2022-10-16T14:49:53;29.50;99.90
37380;DHT22;23252;-33.992;18.480;2022-10-16T14:52:24;29.20;99.90
37380;DHT22;23252;-33.992;18.480;2022-10-16T14:54:51;28.90;99.90
37380;DHT22;23252;-33.992;18.480;2022-10-16T14:57:27;28.60;99.90
37380;DHT22;23252;-33.992;18.480;2022-10-16T14:59:57;28.50;99.90
37380;DHT22;23252;-33.992;18.480;2022-10-16T15:04:53;28.20;99.90
37380;DHT22;23252;-33.992;18.480;2022-10-16T15:07:19;28.10;99.90
37380;DHT22;23252;-33.992;18.480;2022-10-16T15:09:47;28.00;99.90
37380;DHT22;23252;-33.992;18.480;2022-10-16T15:12:13;27.90;99.90
37380;DHT22;23252;-33.992;18.480;2022-10-16T15:14:40;27.80;99.90
37380;DHT22;23252;-33.992;18.480;2022-10-16T15:17:10;27.60;99.90
37380;DHT22;23252;-33.992;18.480;2022-10-16T15:19:36;27.40;99.90
37380;DHT22;23252;-33.992;18.480;2022-10-16T15:22:03;27.40;99.90
37380;DHT22;23252;-33.992;18.480;2022-10-16T15:24:30;27.30;99.90
37380;DHT22;23252;-33.992;18.480;2022-10-16T15:26:56;27.30;99.90
37380;DHT22;23252;-33.992;18.480;2022-10-16T15:29:23;27.20;99.90
37380;DHT22;23252;-33.992;18.480;2022-10-16T15:31:49;27.20;99.90
37380;DHT22;23252;-33.992;18.480;2022-10-16T15:34:16;27.10;99.90
37380;DHT22;23252;-33.992;18.480;2022-10-16T15:36:44;26.90;99.90
37380;DHT22;23252;-33.992;18.480;2022-10-16T15:39:18;26.80;99.90
37380;DHT22;23252;-33.992;18.480;2022-10-16T15:41:47;26.70;99.90
37380;DHT22;23252;-33.992;18.480;2022-10-16T15:44:20;26.50;99.90
37380;DHT22;23252;-33.992;18.480;2022-10-16T15:46:49;26.40;99.90
37380;DHT22;23252;-33.992;18.480;2022-10-16T15:49:16;26.20;99.90
37380;DHT22;23252;-33.992;18.480;2022-10-16T15:51:43;26.10;99.90
37380;DHT22;23252;-33.992;18.480;2022-10-16T15:54:10;26.00;99.90
37380;DHT22;23252;-33.992;18.480;2022-10-16T15:56:37;25.90;99.90
37380;DHT22;23252;-33.992;18.480;2022-10-16T15:59:04;25.80;99.90
37380;DHT22;23252;-33.992;18.480;2022-10-16T16:01:34;25.70;99.90
37380;DHT22;23252;-33.992;18.480;2022-10-16T16:04:01;25.50;99.90
37380;DHT22;23252;-33.992;18.480;2022-10-16T16:06:28;25.40;99.90
37380;DHT22;23252;-33.992;18.480;2022-10-16T16:08:55;25.20;99.90
37380;DHT22;23252;-33.992;18.480;2022-10-16T16:11:22;25.10;99.90
37380;DHT22;23252;-33.992;18.480;2022-10-16T16:14:02;25.00;99.90
37380;DHT22;23252;-33.992;18.480;2022-10-16T16:16:28;24.90;99.90
37380;DHT22;23252;-33.992;18.480;2022-10-16T16:18:58;24.80;99.90
37380;DHT22;23252;-33.992;18.480;2022-10-16T16:21:39;24.60;99.90
37380;DHT22;23252;-33.992;18.480;2022-10-16T16:24:08;24.50;99.90
37380;DHT22;23252;-33.992;18.480;2022-10-16T16:26:38;24.40;99.90
37380;DHT22;23252;-33.992;18.480;2022-10-16T16:29:13;24.30;99.90
37380;DHT22;23252;-33.992;18.480;2022-10-16T16:31:43;24.20;99.90
37380;DHT22;23252;-33.992;18.480;2022-10-16T16:34:13;24.10;99.90
37380;DHT22;23252;-33.992;18.480;2022-10-16T16:36:41;24.00;99.90
37380;DHT22;23252;-33.992;18.480;2022-10-16T16:39:08;23.80;99.90
37380;DHT22;23252;-33.992;18.480;2022-10-16T16:41:37;23.70;99.90
37380;DHT22;23252;-33.992;18.480;2022-10-16T16:44:11;23.70;99.90
37380;DHT22;23252;-33.992;18.480;2022-10-16T16:46:41;23.50;99.90
37380;DHT22;23252;-33.992;18.480;2022-10-16T16:49:12;23.40;99.90
37380;DHT22;23252;-33.992;18.480;2022-10-16T16:51:42;23.40;99.90
37380;DHT22;23252;-33.992;18.480;2022-10-16T16:54:17;23.30;99.90
37380;DHT22;23252;-33.992;18.480;2022-10-16T16:56:49;23.20;99.90
37380;DHT22;23252;-33.992;18.480;2022-10-16T16:59:18;23.20;99.90
37380;DHT22;23252;-33.992;18.480;2022-10-16T17:01:48;23.20;99.90
37380;DHT22;23252;-33.992;18.480;2022-10-16T17:04:19;23.10;99.90
37380;DHT22;23252;-33.992;18.480;2022-10-16T17:06:54;23.00;99.90
37380;DHT22;23252;-33.992;18.480;2022-10-16T17:09:22;23.00;99.90
37380;DHT22;23252;-33.992;18.480;2022-10-16T17:11:48;22.90;99.90
37380;DHT22;23252;-33.992;18.480;2022-10-16T17:14:17;22.90;99.90
37380;DHT22;23252;-33.992;18.480;2022-10-16T17:16:43;22.90;99.90
37380;DHT22;23252;-33.992;18.480;2022-10-16T17:19:17;22.90;99.90
37380;DHT22;23252;-33.992;18.480;2022-10-16T17:21:44;22.70;99.90
37380;DHT22;23252;-33.992;18.480;2022-10-16T17:24:10;22.70;99.90
37380;DHT22;23252;-33.992;18.480;2022-10-16T17:26:37;22.60;99.90
37380;DHT22;23252;-33.992;18.480;2022-10-16T17:29:11;22.60;99.90
37380;DHT22;23252;-33.992;18.480;2022-10-16T17:31:38;22.60;99.90
37380;DHT22;23252;-33.992;18.480;2022-10-16T17:34:07;22.50;99.90